Terminal Aerodrome Forecast
Issued by NWS

Current Version | Previous Version | Text Only | Print | Product List | Glossary On
Versions: 1 2 3 4 5 6 7 8 9 10 11 12 13 14 15 16 17
000
FTUS43 KILX 010500
TAFCMI
TAF
KCMI 010528Z 0106/0206 11006KT 1SM -SN BR OVC012
      TEMPO 0106/0110 1/2SM SN FG VV008
     FM011600 VRB03KT 3SM -SN BR OVC025
     FM012100 29005KT P6SM OVC025
     FM020400 30008KT P6SM SCT025 BKN200=

USA.gov is the U.S. government's official web portal to all federal, state and local government web resources and services.